Bustamante, Texas
Current Conditions -  °F | °C
As of 5:35 PM on Sunday 21 Dec 2014 (Local Time) from KHBV Reporting Station
Overcast Overcast  
Wind Chill: 60°   Ceiling: 1400
Heat Index: 60°   Visibility: 7mi
Dew Point: 55°   Wind: 7mph
Humidity: 81%   Direction: 100°E
Pressure: 29.92"   Gusts: NA
Location:  27.0695°N, 98.7494°W
Report Text: KHBV 212335Z AUTO 10006KT 7SM OVC014 16/13 A2992 RMK AO2 T01580126 PWINO
Loading
Personal Weather Stations






























Interactive Weather Map New forecast layout! Learn more

10-Day Weather Forecast

Advertisements
Track Severe Weather on mobile